sensor_id;sensor_type;location;lat;lon;timestamp;pressure;altitude;pressure_sealevel;temperature;humidity
41898;BME280;27576;53.366;-1.498;2023-04-25T00:00:01;100305.69;;;3.88;91.84
41898;BME280;27576;53.366;-1.498;2023-04-25T00:02:28;100289.88;;;3.76;91.60
41898;BME280;27576;53.366;-1.498;2023-04-25T00:04:54;100299.28;;;3.77;92.08
41898;BME280;27576;53.366;-1.498;2023-04-25T00:07:19;100321.31;;;3.94;92.95
41898;BME280;27576;53.366;-1.498;2023-04-25T00:09:44;100319.34;;;3.87;93.21
41898;BME280;27576;53.366;-1.498;2023-04-25T00:12:10;100303.44;;;3.74;93.43
41898;BME280;27576;53.366;-1.498;2023-04-25T00:14:35;100289.69;;;3.72;92.99
41898;BME280;27576;53.366;-1.498;2023-04-25T00:17:01;100294.06;;;3.74;92.62
41898;BME280;27576;53.366;-1.498;2023-04-25T00:19:27;100317.59;;;3.86;92.53
41898;BME280;27576;53.366;-1.498;2023-04-25T00:21:54;100314.00;;;3.81;91.70
41898;BME280;27576;53.366;-1.498;2023-04-25T00:24:20;100260.75;;;3.52;93.05
41898;BME280;27576;53.366;-1.498;2023-04-25T00:26:45;100278.97;;;3.59;92.96
41898;BME280;27576;53.366;-1.498;2023-04-25T00:29:11;100323.19;;;3.76;91.55
41898;BME280;27576;53.366;-1.498;2023-04-25T00:31:37;100327.47;;;3.77;91.00
41898;BME280;27576;53.366;-1.498;2023-04-25T00:34:02;100325.44;;;3.68;91.67
41898;BME280;27576;53.366;-1.498;2023-04-25T00:36:28;100296.66;;;3.53;91.24
41898;BME280;27576;53.366;-1.498;2023-04-25T00:38:53;100287.75;;;3.43;92.25
41898;BME280;27576;53.366;-1.498;2023-04-25T00:41:20;100313.84;;;3.56;92.68
41898;BME280;27576;53.366;-1.498;2023-04-25T00:43:46;100324.09;;;3.56;91.45
41898;BME280;27576;53.366;-1.498;2023-04-25T00:46:12;100317.09;;;3.52;91.10
41898;BME280;27576;53.366;-1.498;2023-04-25T00:48:38;100301.38;;;3.42;92.05
41898;BME280;27576;53.366;-1.498;2023-04-25T00:51:03;100332.78;;;3.59;93.28
41898;BME280;27576;53.366;-1.498;2023-04-25T00:53:30;100321.34;;;3.51;93.34
41898;BME280;27576;53.366;-1.498;2023-04-25T00:55:57;100282.72;;;3.24;92.50
41898;BME280;27576;53.366;-1.498;2023-04-25T00:58:22;100321.28;;;3.50;93.38
41898;BME280;27576;53.366;-1.498;2023-04-25T01:00:49;100314.19;;;3.42;93.76
41898;BME280;27576;53.366;-1.498;2023-04-25T01:03:16;100327.22;;;3.49;93.74
41898;BME280;27576;53.366;-1.498;2023-04-25T01:05:43;100329.72;;;3.47;92.37
41898;BME280;27576;53.366;-1.498;2023-04-25T01:08:09;100336.38;;;3.42;93.08
41898;BME280;27576;53.366;-1.498;2023-04-25T01:10:35;100325.13;;;3.38;92.96
41898;BME280;27576;53.366;-1.498;2023-04-25T01:13:00;100344.16;;;3.45;92.80
41898;BME280;27576;53.366;-1.498;2023-04-25T01:15:26;100308.56;;;3.30;93.92
41898;BME280;27576;53.366;-1.498;2023-04-25T01:17:51;100295.38;;;3.21;93.99
41898;BME280;27576;53.366;-1.498;2023-04-25T01:20:20;100307.50;;;3.25;94.51
41898;BME280;27576;53.366;-1.498;2023-04-25T01:22:46;100338.97;;;3.43;94.21
41898;BME280;27576;53.366;-1.498;2023-04-25T01:25:12;100312.69;;;3.27;94.35
41898;BME280;27576;53.366;-1.498;2023-04-25T01:27:38;100302.19;;;3.20;95.24
41898;BME280;27576;53.366;-1.498;2023-04-25T01:30:04;100304.81;;;3.22;95.19
41898;BME280;27576;53.366;-1.498;2023-04-25T01:32:30;100326.72;;;3.36;93.58
41898;BME280;27576;53.366;-1.498;2023-04-25T01:35:07;100327.56;;;3.35;94.49
41898;BME280;27576;53.366;-1.498;2023-04-25T01:37:40;100328.38;;;3.34;95.27
41898;BME280;27576;53.366;-1.498;2023-04-25T01:40:07;100329.13;;;3.32;95.44
41898;BME280;27576;53.366;-1.498;2023-04-25T01:42:34;100317.50;;;3.19;94.56
41898;BME280;27576;53.366;-1.498;2023-04-25T01:45:00;100328.13;;;3.28;95.01
41898;BME280;27576;53.366;-1.498;2023-04-25T01:47:25;100318.38;;;3.19;94.54
41898;BME280;27576;53.366;-1.498;2023-04-25T01:49:50;100328.66;;;3.21;95.08
41898;BME280;27576;53.366;-1.498;2023-04-25T01:52:16;100320.75;;;3.15;94.35
41898;BME280;27576;53.366;-1.498;2023-04-25T01:54:41;100296.91;;;2.95;93.16
41898;BME280;27576;53.366;-1.498;2023-04-25T01:57:10;100342.97;;;3.16;93.48
41898;BME280;27576;53.366;-1.498;2023-04-25T01:59:36;100298.44;;;2.91;95.15
41898;BME280;27576;53.366;-1.498;2023-04-25T02:02:01;100321.84;;;3.01;95.30
41898;BME280;27576;53.366;-1.498;2023-04-25T02:04:29;100315.00;;;3.00;95.10
41898;BME280;27576;53.366;-1.498;2023-04-25T02:06:54;100314.00;;;2.96;94.92
41898;BME280;27576;53.366;-1.498;2023-04-25T02:09:20;100334.84;;;3.05;94.69
41898;BME280;27576;53.366;-1.498;2023-04-25T02:11:45;100321.72;;;2.98;95.75
41898;BME280;27576;53.366;-1.498;2023-04-25T02:14:11;100334.97;;;3.08;94.59
41898;BME280;27576;53.366;-1.498;2023-04-25T02:16:36;100312.84;;;2.89;94.75
41898;BME280;27576;53.366;-1.498;2023-04-25T02:19:03;100324.03;;;2.91;94.22
41898;BME280;27576;53.366;-1.498;2023-04-25T02:21:28;100316.09;;;2.85;95.19
41898;BME280;27576;53.366;-1.498;2023-04-25T02:23:54;100356.81;;;3.00;95.24
41898;BME280;27576;53.366;-1.498;2023-04-25T02:26:19;100350.97;;;3.03;95.65
41898;BME280;27576;53.366;-1.498;2023-04-25T02:28:44;100315.97;;;2.82;95.18
41898;BME280;27576;53.366;-1.498;2023-04-25T02:31:10;100319.09;;;2.75;95.56
41898;BME280;27576;53.366;-1.498;2023-04-25T02:33:35;100331.41;;;2.84;96.26
41898;BME280;27576;53.366;-1.498;2023-04-25T02:36:01;100309.41;;;2.68;95.54
41898;BME280;27576;53.366;-1.498;2023-04-25T02:38:26;100325.94;;;2.76;95.74
41898;BME280;27576;53.366;-1.498;2023-04-25T02:40:51;100343.38;;;2.85;95.63
41898;BME280;27576;53.366;-1.498;2023-04-25T02:43:17;100323.41;;;2.76;94.53
41898;BME280;27576;53.366;-1.498;2023-04-25T02:45:45;100344.38;;;2.88;95.94
41898;BME280;27576;53.366;-1.498;2023-04-25T02:48:11;100319.63;;;2.68;94.86
41898;BME280;27576;53.366;-1.498;2023-04-25T02:50:36;100342.13;;;2.75;96.15
41898;BME280;27576;53.366;-1.498;2023-04-25T02:53:01;100362.44;;;2.91;96.21
41898;BME280;27576;53.366;-1.498;2023-04-25T02:55:27;100343.19;;;2.80;96.25
41898;BME280;27576;53.366;-1.498;2023-04-25T02:57:52;100269.66;;;2.36;96.15
41898;BME280;27576;53.366;-1.498;2023-04-25T03:00:20;100368.28;;;2.89;97.08
41898;BME280;27576;53.366;-1.498;2023-04-25T03:02:46;100322.94;;;2.65;96.25
41898;BME280;27576;53.366;-1.498;2023-04-25T03:05:11;100331.41;;;2.64;96.95
41898;BME280;27576;53.366;-1.498;2023-04-25T03:07:37;100324.47;;;2.62;97.85
41898;BME280;27576;53.366;-1.498;2023-04-25T03:10:05;100362.97;;;2.84;98.19
41898;BME280;27576;53.366;-1.498;2023-04-25T03:12:31;100374.91;;;2.84;98.30
41898;BME280;27576;53.366;-1.498;2023-04-25T03:14:56;100369.59;;;2.79;98.09
41898;BME280;27576;53.366;-1.498;2023-04-25T03:17:22;100349.38;;;2.66;97.87
41898;BME280;27576;53.366;-1.498;2023-04-25T03:19:47;100366.75;;;2.73;98.47
41898;BME280;27576;53.366;-1.498;2023-04-25T03:22:13;100349.13;;;2.60;98.20
41898;BME280;27576;53.366;-1.498;2023-04-25T03:24:38;100366.38;;;2.64;97.61
41898;BME280;27576;53.366;-1.498;2023-04-25T03:27:04;100351.59;;;2.58;98.87
41898;BME280;27576;53.366;-1.498;2023-04-25T03:29:30;100348.03;;;2.55;98.68
41898;BME280;27576;53.366;-1.498;2023-04-25T03:31:55;100371.47;;;2.64;98.98
41898;BME280;27576;53.366;-1.498;2023-04-25T03:34:21;100331.22;;;2.40;97.96
41898;BME280;27576;53.366;-1.498;2023-04-25T03:36:47;100389.78;;;2.73;98.11
41898;BME280;27576;53.366;-1.498;2023-04-25T03:39:13;100369.59;;;2.60;98.80
41898;BME280;27576;53.366;-1.498;2023-04-25T03:41:38;100366.22;;;2.61;99.42
41898;BME280;27576;53.366;-1.498;2023-04-25T03:44:04;100373.91;;;2.61;99.02
41898;BME280;27576;53.366;-1.498;2023-04-25T03:46:29;100346.69;;;2.43;98.38
41898;BME280;27576;53.366;-1.498;2023-04-25T03:48:55;100386.94;;;2.67;98.73
41898;BME280;27576;53.366;-1.498;2023-04-25T03:51:20;100363.31;;;2.53;99.43
41898;BME280;27576;53.366;-1.498;2023-04-25T03:53:46;100337.94;;;2.38;99.48
41898;BME280;27576;53.366;-1.498;2023-04-25T03:56:11;100379.94;;;2.63;99.35
41898;BME280;27576;53.366;-1.498;2023-04-25T03:58:36;100338.81;;;2.39;99.77
41898;BME280;27576;53.366;-1.498;2023-04-25T04:01:02;100384.94;;;2.60;99.69
41898;BME280;27576;53.366;-1.498;2023-04-25T04:03:35;100351.47;;;2.36;100.00
41898;BME280;27576;53.366;-1.498;2023-04-25T04:06:03;100386.53;;;2.58;100.00
41898;BME280;27576;53.366;-1.498;2023-04-25T04:08:29;100354.97;;;2.38;100.00
41898;BME280;27576;53.366;-1.498;2023-04-25T04:10:56;100369.69;;;2.43;100.00
41898;BME280;27576;53.366;-1.498;2023-04-25T04:13:22;100364.38;;;2.39;100.00
41898;BME280;27576;53.366;-1.498;2023-04-25T04:15:47;100355.63;;;2.34;100.00
41898;BME280;27576;53.366;-1.498;2023-04-25T04:18:12;100384.59;;;2.52;100.00
41898;BME280;27576;53.366;-1.498;2023-04-25T04:20:38;100362.34;;;2.32;100.00
41898;BME280;27576;53.366;-1.498;2023-04-25T04:23:03;100385.84;;;2.42;100.00
41898;BME280;27576;53.366;-1.498;2023-04-25T04:25:28;100383.28;;;2.42;100.00
41898;BME280;27576;53.366;-1.498;2023-04-25T04:27:55;100384.97;;;2.42;100.00
41898;BME280;27576;53.366;-1.498;2023-04-25T04:30:25;100408.28;;;2.48;100.00
41898;BME280;27576;53.366;-1.498;2023-04-25T04:32:51;100400.53;;;2.46;100.00
41898;BME280;27576;53.366;-1.498;2023-04-25T04:35:17;100393.31;;;2.38;100.00
41898;BME280;27576;53.366;-1.498;2023-04-25T04:37:42;100347.75;;;2.10;100.00
41898;BME280;27576;53.366;-1.498;2023-04-25T04:40:09;100386.94;;;2.28;100.00
41898;BME280;27576;53.366;-1.498;2023-04-25T04:42:34;100380.66;;;2.21;100.00
41898;BME280;27576;53.366;-1.498;2023-04-25T04:45:01;100395.47;;;2.29;100.00
41898;BME280;27576;53.366;-1.498;2023-04-25T04:47:27;100372.63;;;2.14;100.00
41898;BME280;27576;53.366;-1.498;2023-04-25T04:49:55;100412.91;;;2.37;100.00
41898;BME280;27576;53.366;-1.498;2023-04-25T04:52:21;100405.19;;;2.36;100.00
41898;BME280;27576;53.366;-1.498;2023-04-25T04:54:46;100403.34;;;2.33;100.00
41898;BME280;27576;53.366;-1.498;2023-04-25T04:57:12;100389.13;;;2.20;100.00
41898;BME280;27576;53.366;-1.498;2023-04-25T04:59:37;100397.00;;;2.25;100.00
41898;BME280;27576;53.366;-1.498;2023-04-25T05:02:02;100406.38;;;2.25;100.00
41898;BME280;27576;53.366;-1.498;2023-04-25T05:04:28;100415.63;;;2.22;100.00
41898;BME280;27576;53.366;-1.498;2023-04-25T05:06:53;100387.66;;;2.08;100.00
41898;BME280;27576;53.366;-1.498;2023-04-25T05:09:19;100394.00;;;2.16;100.00
41898;BME280;27576;53.366;-1.498;2023-04-25T05:11:44;100435.13;;;2.38;100.00
41898;BME280;27576;53.366;-1.498;2023-04-25T05:14:10;100431.63;;;2.36;100.00
41898;BME280;27576;53.366;-1.498;2023-04-25T05:16:35;100408.06;;;2.24;100.00
41898;BME280;27576;53.366;-1.498;2023-04-25T05:19:00;100430.97;;;2.40;100.00
41898;BME280;27576;53.366;-1.498;2023-04-25T05:21:26;100435.13;;;2.38;100.00
41898;BME280;27576;53.366;-1.498;2023-04-25T05:23:53;100412.41;;;2.27;100.00
41898;BME280;27576;53.366;-1.498;2023-04-25T05:26:19;100426.22;;;2.30;100.00
41898;BME280;27576;53.366;-1.498;2023-04-25T05:28:45;100440.22;;;2.38;100.00
41898;BME280;27576;53.366;-1.498;2023-04-25T05:31:11;100436.84;;;2.39;100.00
41898;BME280;27576;53.366;-1.498;2023-04-25T05:33:37;100434.97;;;2.35;100.00
41898;BME280;27576;53.366;-1.498;2023-04-25T05:36:02;100405.50;;;2.24;100.00
41898;BME280;27576;53.366;-1.498;2023-04-25T05:38:28;100424.72;;;2.35;100.00
41898;BME280;27576;53.366;-1.498;2023-04-25T05:40:53;100422.19;;;2.35;100.00
41898;BME280;27576;53.366;-1.498;2023-04-25T05:43:18;100443.00;;;2.43;100.00
41898;BME280;27576;53.366;-1.498;2023-04-25T05:45:44;100421.41;;;2.36;100.00
41898;BME280;27576;53.366;-1.498;2023-04-25T05:48:09;100395.38;;;2.27;100.00
41898;BME280;27576;53.366;-1.498;2023-04-25T05:50:35;100402.34;;;2.30;99.95
41898;BME280;27576;53.366;-1.498;2023-04-25T05:53:00;100417.22;;;2.38;100.00
41898;BME280;27576;53.366;-1.498;2023-04-25T05:55:25;100416.53;;;2.42;100.00
41898;BME280;27576;53.366;-1.498;2023-04-25T05:57:51;100440.94;;;2.54;100.00
41898;BME280;27576;53.366;-1.498;2023-04-25T06:00:16;100442.75;;;2.56;99.74
41898;BME280;27576;53.366;-1.498;2023-04-25T06:02:42;100408.28;;;2.48;100.00
41898;BME280;27576;53.366;-1.498;2023-04-25T06:05:08;100409.22;;;2.50;98.29
41898;BME280;27576;53.366;-1.498;2023-04-25T06:07:33;100409.50;;;2.56;99.45
41898;BME280;27576;53.366;-1.498;2023-04-25T06:10:00;100449.16;;;2.85;100.00
41898;BME280;27576;53.366;-1.498;2023-04-25T06:12:26;100424.94;;;2.77;100.00
41898;BME280;27576;53.366;-1.498;2023-04-25T06:14:51;100453.38;;;3.03;99.91
41898;BME280;27576;53.366;-1.498;2023-04-25T06:17:16;100409.84;;;2.83;98.56
41898;BME280;27576;53.366;-1.498;2023-04-25T06:19:42;100446.75;;;3.08;98.21
41898;BME280;27576;53.366;-1.498;2023-04-25T06:22:07;100469.78;;;3.27;97.18
41898;BME280;27576;53.366;-1.498;2023-04-25T06:24:33;100475.16;;;3.33;96.64
41898;BME280;27576;53.366;-1.498;2023-04-25T06:26:59;100472.19;;;3.43;96.29
41898;BME280;27576;53.366;-1.498;2023-04-25T06:29:25;100449.31;;;3.48;95.33
41898;BME280;27576;53.366;-1.498;2023-04-25T06:31:50;100462.22;;;3.71;96.70
41898;BME280;27576;53.366;-1.498;2023-04-25T06:34:15;100433.94;;;3.69;95.52
41898;BME280;27576;53.366;-1.498;2023-04-25T06:36:41;100366.34;;;3.44;93.18
41898;BME280;27576;53.366;-1.498;2023-04-25T06:39:06;100425.69;;;3.97;91.88
41898;BME280;27576;53.366;-1.498;2023-04-25T06:41:32;100465.56;;;4.11;87.85
41898;BME280;27576;53.366;-1.498;2023-04-25T06:43:57;100446.56;;;4.06;90.71
41898;BME280;27576;53.366;-1.498;2023-04-25T06:46:23;100471.28;;;4.27;89.25
41898;BME280;27576;53.366;-1.498;2023-04-25T06:48:48;100443.66;;;4.19;89.71
41898;BME280;27576;53.366;-1.498;2023-04-25T06:51:13;100446.06;;;4.37;88.68
41898;BME280;27576;53.366;-1.498;2023-04-25T06:53:39;100457.91;;;4.56;88.36
41898;BME280;27576;53.366;-1.498;2023-04-25T06:56:05;100445.13;;;4.58;87.42
41898;BME280;27576;53.366;-1.498;2023-04-25T06:58:31;100497.06;;;4.97;86.74
41898;BME280;27576;53.366;-1.498;2023-04-25T07:00:56;100452.03;;;4.83;85.98
41898;BME280;27576;53.366;-1.498;2023-04-25T07:03:22;100447.00;;;4.86;84.38
41898;BME280;27576;53.366;-1.498;2023-04-25T07:05:47;100468.84;;;4.99;83.83
41898;BME280;27576;53.366;-1.498;2023-04-25T07:08:12;100503.16;;;5.23;84.37
41898;BME280;27576;53.366;-1.498;2023-04-25T07:10:38;100493.94;;;5.30;84.04
41898;BME280;27576;53.366;-1.498;2023-04-25T07:13:03;100477.66;;;5.29;83.32
41898;BME280;27576;53.366;-1.498;2023-04-25T07:15:29;100446.28;;;5.14;81.14
41898;BME280;27576;53.366;-1.498;2023-04-25T07:17:54;100470.06;;;5.32;81.48
41898;BME280;27576;53.366;-1.498;2023-04-25T07:20:19;100495.53;;;5.50;82.55
41898;BME280;27576;53.366;-1.498;2023-04-25T07:22:45;100460.81;;;5.37;81.33
41898;BME280;27576;53.366;-1.498;2023-04-25T07:25:11;100500.38;;;5.66;81.09
41898;BME280;27576;53.366;-1.498;2023-04-25T07:27:36;100473.47;;;5.57;81.56
41898;BME280;27576;53.366;-1.498;2023-04-25T07:30:02;100490.44;;;5.77;80.12
41898;BME280;27576;53.366;-1.498;2023-04-25T07:32:29;100499.25;;;5.84;79.94
41898;BME280;27576;53.366;-1.498;2023-04-25T07:34:55;100477.38;;;5.71;79.31
41898;BME280;27576;53.366;-1.498;2023-04-25T07:37:20;100466.88;;;5.65;78.32
41898;BME280;27576;53.366;-1.498;2023-04-25T07:39:45;100495.06;;;5.87;78.06
41898;BME280;27576;53.366;-1.498;2023-04-25T07:42:12;100517.78;;;5.99;76.22
41898;BME280;27576;53.366;-1.498;2023-04-25T07:44:37;100482.91;;;5.82;77.28
41898;BME280;27576;53.366;-1.498;2023-04-25T07:47:07;100515.56;;;6.10;76.86
41898;BME280;27576;53.366;-1.498;2023-04-25T07:49:36;100511.47;;;6.17;77.52
41898;BME280;27576;53.366;-1.498;2023-04-25T07:52:03;100524.78;;;6.30;77.52
41898;BME280;27576;53.366;-1.498;2023-04-25T07:54:29;100519.03;;;6.37;75.43
41898;BME280;27576;53.366;-1.498;2023-04-25T07:56:55;100529.47;;;6.42;74.44
41898;BME280;27576;53.366;-1.498;2023-04-25T07:59:21;100503.50;;;6.36;74.57
41898;BME280;27576;53.366;-1.498;2023-04-25T08:01:47;100475.91;;;6.30;74.19
41898;BME280;27576;53.366;-1.498;2023-04-25T08:04:12;100489.88;;;6.38;73.05
41898;BME280;27576;53.366;-1.498;2023-04-25T08:06:37;100498.59;;;6.44;72.54
41898;BME280;27576;53.366;-1.498;2023-04-25T08:09:03;100506.63;;;6.53;71.51
41898;BME280;27576;53.366;-1.498;2023-04-25T08:11:29;100487.72;;;6.52;72.59
41898;BME280;27576;53.366;-1.498;2023-04-25T08:13:55;100493.28;;;6.66;72.51
41898;BME280;27576;53.366;-1.498;2023-04-25T08:16:20;100498.63;;;6.72;71.50
41898;BME280;27576;53.366;-1.498;2023-04-25T08:18:46;100516.16;;;6.84;70.24
41898;BME280;27576;53.366;-1.498;2023-04-25T08:21:11;100530.28;;;6.98;68.70
41898;BME280;27576;53.366;-1.498;2023-04-25T08:23:37;100527.69;;;6.97;70.40
41898;BME280;27576;53.366;-1.498;2023-04-25T08:26:03;100540.88;;;7.07;68.47
41898;BME280;27576;53.366;-1.498;2023-04-25T08:28:30;100504.44;;;6.95;68.56
41898;BME280;27576;53.366;-1.498;2023-04-25T08:30:55;100510.88;;;7.09;68.85
41898;BME280;27576;53.366;-1.498;2023-04-25T08:33:20;100528.56;;;7.27;68.53
41898;BME280;27576;53.366;-1.498;2023-04-25T08:35:46;100546.28;;;7.47;68.12
41898;BME280;27576;53.366;-1.498;2023-04-25T08:38:11;100549.03;;;7.53;66.76
41898;BME280;27576;53.366;-1.498;2023-04-25T08:40:38;100557.97;;;7.66;67.18
41898;BME280;27576;53.366;-1.498;2023-04-25T08:43:04;100561.69;;;7.75;66.09
41898;BME280;27576;53.366;-1.498;2023-04-25T08:45:31;100537.44;;;7.70;63.16
41898;BME280;27576;53.366;-1.498;2023-04-25T08:47:57;100544.50;;;7.76;61.84
41898;BME280;27576;53.366;-1.498;2023-04-25T08:50:24;100561.25;;;7.92;64.06
41898;BME280;27576;53.366;-1.498;2023-04-25T08:52:53;100555.44;;;8.00;62.67
41898;BME280;27576;53.366;-1.498;2023-04-25T08:55:20;100537.28;;;7.97;61.92
41898;BME280;27576;53.366;-1.498;2023-04-25T08:57:46;100516.53;;;7.93;61.52
41898;BME280;27576;53.366;-1.498;2023-04-25T09:00:12;100533.34;;;8.11;62.04
41898;BME280;27576;53.366;-1.498;2023-04-25T09:02:39;100527.44;;;8.17;61.04
41898;BME280;27576;53.366;-1.498;2023-04-25T09:05:05;100524.06;;;8.18;59.02
41898;BME280;27576;53.366;-1.498;2023-04-25T09:07:32;100537.38;;;8.36;61.95
41898;BME280;27576;53.366;-1.498;2023-04-25T09:09:58;100546.47;;;8.54;60.57
41898;BME280;27576;53.366;-1.498;2023-04-25T09:12:27;100553.63;;;8.67;57.46
41898;BME280;27576;53.366;-1.498;2023-04-25T09:15:08;100532.97;;;8.67;57.76
41898;BME280;27576;53.366;-1.498;2023-04-25T09:17:34;100554.13;;;8.89;59.16
41898;BME280;27576;53.366;-1.498;2023-04-25T09:20:11;100515.25;;;8.84;55.07
41898;BME280;27576;53.366;-1.498;2023-04-25T09:22:38;100536.41;;;9.07;58.56
41898;BME280;27576;53.366;-1.498;2023-04-25T09:25:12;100540.78;;;9.09;54.66
41898;BME280;27576;53.366;-1.498;2023-04-25T09:27:50;100526.22;;;9.13;55.88
41898;BME280;27576;53.366;-1.498;2023-04-25T09:30:19;100528.97;;;9.22;57.49
41898;BME280;27576;53.366;-1.498;2023-04-25T09:32:56;100535.38;;;9.40;56.16
41898;BME280;27576;53.366;-1.498;2023-04-25T09:35:25;100535.47;;;9.46;55.82
41898;BME280;27576;53.366;-1.498;2023-04-25T09:37:53;100526.94;;;9.50;56.05
41898;BME280;27576;53.366;-1.498;2023-04-25T09:40:19;100538.34;;;9.59;55.82
41898;BME280;27576;53.366;-1.498;2023-04-25T09:42:44;100506.06;;;9.41;53.18
41898;BME280;27576;53.366;-1.498;2023-04-25T09:45:13;100543.75;;;9.72;53.46
41898;BME280;27576;53.366;-1.498;2023-04-25T09:47:40;100506.31;;;9.53;53.85
41898;BME280;27576;53.366;-1.498;2023-04-25T09:50:16;100539.66;;;9.86;50.91
41898;BME280;27576;53.366;-1.498;2023-04-25T09:52:44;100512.78;;;9.76;54.18
41898;BME280;27576;53.366;-1.498;2023-04-25T09:55:09;100506.00;;;9.84;53.10
41898;BME280;27576;53.366;-1.498;2023-04-25T09:57:35;100549.75;;;10.19;49.82
41898;BME280;27576;53.366;-1.498;2023-04-25T10:00:01;100523.81;;;10.18;48.50
41898;BME280;27576;53.366;-1.498;2023-04-25T10:02:31;100543.06;;;10.32;47.32
41898;BME280;27576;53.366;-1.498;2023-04-25T10:04:58;100517.25;;;10.37;47.39
41898;BME280;27576;53.366;-1.498;2023-04-25T10:07:28;100545.22;;;10.57;46.02
41898;BME280;27576;53.366;-1.498;2023-04-25T10:10:01;100535.78;;;10.64;46.28
41898;BME280;27576;53.366;-1.498;2023-04-25T10:12:28;100517.75;;;10.70;47.05
41898;BME280;27576;53.366;-1.498;2023-04-25T10:14:54;100536.16;;;10.89;46.75
41898;BME280;27576;53.366;-1.498;2023-04-25T10:17:20;100528.44;;;10.96;45.93
41898;BME280;27576;53.366;-1.498;2023-04-25T10:19:49;100541.59;;;11.10;44.07
41898;BME280;27576;53.366;-1.498;2023-04-25T10:22:18;100543.28;;;11.05;41.60
41898;BME280;27576;53.366;-1.498;2023-04-25T10:24:46;100513.63;;;10.86;43.24
41898;BME280;27576;53.366;-1.498;2023-04-25T10:27:12;100504.97;;;10.84;43.07
41898;BME280;27576;53.366;-1.498;2023-04-25T10:29:37;100512.22;;;11.10;44.22
41898;BME280;27576;53.366;-1.498;2023-04-25T10:32:03;100528.03;;;11.31;42.93
41898;BME280;27576;53.366;-1.498;2023-04-25T10:34:43;100495.13;;;11.25;41.89
41898;BME280;27576;53.366;-1.498;2023-04-25T10:37:12;100515.91;;;11.28;43.11
41898;BME280;27576;53.366;-1.498;2023-04-25T10:39:39;100523.88;;;11.45;43.47
41898;BME280;27576;53.366;-1.498;2023-04-25T10:42:06;100531.69;;;11.48;41.36
41898;BME280;27576;53.366;-1.498;2023-04-25T10:44:33;100529.16;;;11.53;40.64
41898;BME280;27576;53.366;-1.498;2023-04-25T10:46:59;100539.66;;;11.64;41.44
41898;BME280;27576;53.366;-1.498;2023-04-25T10:49:30;100506.66;;;11.52;42.17
41898;BME280;27576;53.366;-1.498;2023-04-25T10:55:02;100542.91;;;11.47;38.11
41898;BME280;27576;53.366;-1.498;2023-04-25T10:57:44;100526.47;;;11.45;40.85
41898;BME280;27576;53.366;-1.498;2023-04-25T11:00:17;100532.78;;;11.70;42.27
41898;BME280;27576;53.366;-1.498;2023-04-25T11:02:48;100530.38;;;11.86;43.90
41898;BME280;27576;53.366;-1.498;2023-04-25T11:05:32;100545.31;;;12.08;42.89
41898;BME280;27576;53.366;-1.498;2023-04-25T11:07:59;100507.19;;;12.09;43.36
41898;BME280;27576;53.366;-1.498;2023-04-25T11:10:34;100532.63;;;12.48;42.94
41898;BME280;27576;53.366;-1.498;2023-04-25T11:13:02;100533.59;;;12.65;43.78
41898;BME280;27576;53.366;-1.498;2023-04-25T11:15:28;100537.94;;;12.68;43.44
41898;BME280;27576;53.366;-1.498;2023-04-25T11:17:54;100525.84;;;12.71;45.12
41898;BME280;27576;53.366;-1.498;2023-04-25T11:20:21;100492.88;;;12.64;43.35
41898;BME280;27576;53.366;-1.498;2023-04-25T11:22:47;100519.06;;;12.98;45.61
41898;BME280;27576;53.366;-1.498;2023-04-25T11:25:14;100530.34;;;13.08;45.69
41898;BME280;27576;53.366;-1.498;2023-04-25T11:27:57;100526.00;;;13.02;44.47
41898;BME280;27576;53.366;-1.498;2023-04-25T11:30:24;100519.94;;;12.97;44.15
41898;BME280;27576;53.366;-1.498;2023-04-25T11:32:50;100522.38;;;12.72;43.86
41898;BME280;27576;53.366;-1.498;2023-04-25T11:35:17;100511.69;;;12.26;44.26
41898;BME280;27576;53.366;-1.498;2023-04-25T11:37:43;100527.00;;;11.96;44.26
41898;BME280;27576;53.366;-1.498;2023-04-25T11:40:10;100524.16;;;11.74;45.08
41898;BME280;27576;53.366;-1.498;2023-04-25T11:42:43;100490.38;;;11.70;43.60
41898;BME280;27576;53.366;-1.498;2023-04-25T11:45:09;100500.00;;;11.80;42.66
41898;BME280;27576;53.366;-1.498;2023-04-25T11:47:35;100492.34;;;11.94;40.72
41898;BME280;27576;53.366;-1.498;2023-04-25T11:50:01;100502.94;;;12.15;42.81
41898;BME280;27576;53.366;-1.498;2023-04-25T11:55:07;100484.66;;;12.04;41.83
41898;BME280;27576;53.366;-1.498;2023-04-25T11:57:33;100499.44;;;12.13;46.03
41898;BME280;27576;53.366;-1.498;2023-04-25T12:02:35;100466.59;;;12.21;42.28
41898;BME280;27576;53.366;-1.498;2023-04-25T12:05:00;100498.94;;;12.63;42.14
41898;BME280;27576;53.366;-1.498;2023-04-25T12:07:29;100490.25;;;12.64;41.31
41898;BME280;27576;53.366;-1.498;2023-04-25T12:09:55;100493.78;;;12.72;43.25
41898;BME280;27576;53.366;-1.498;2023-04-25T12:12:20;100467.75;;;12.66;41.80
41898;BME280;27576;53.366;-1.498;2023-04-25T12:14:47;100473.88;;;12.79;40.26
41898;BME280;27576;53.366;-1.498;2023-04-25T12:17:16;100482.47;;;12.64;36.99
41898;BME280;27576;53.366;-1.498;2023-04-25T12:19:42;100448.56;;;12.43;42.00
41898;BME280;27576;53.366;-1.498;2023-04-25T12:22:23;100504.22;;;12.80;42.95
41898;BME280;27576;53.366;-1.498;2023-04-25T12:24:49;100443.41;;;12.52;42.57
41898;BME280;27576;53.366;-1.498;2023-04-25T12:27:16;100512.06;;;12.86;40.87
41898;BME280;27576;53.366;-1.498;2023-04-25T12:29:51;100487.72;;;12.70;39.57
41898;BME280;27576;53.366;-1.498;2023-04-25T12:32:16;100506.94;;;13.03;42.92
41898;BME280;27576;53.366;-1.498;2023-04-25T12:34:43;100491.38;;;13.15;42.83
41898;BME280;27576;53.366;-1.498;2023-04-25T12:37:09;100479.28;;;13.26;39.97
41898;BME280;27576;53.366;-1.498;2023-04-25T12:39:34;100475.91;;;13.52;40.92
41898;BME280;27576;53.366;-1.498;2023-04-25T12:42:00;100491.56;;;13.98;40.86
41898;BME280;27576;53.366;-1.498;2023-04-25T12:44:26;100495.03;;;14.09;37.03
41898;BME280;27576;53.366;-1.498;2023-04-25T12:46:52;100461.19;;;13.85;37.58
41898;BME280;27576;53.366;-1.498;2023-04-25T12:49:20;100504.59;;;14.27;40.71